sensor_id;sensor_type;location;lat;lon;timestamp;pressure;altitude;pressure_sealevel;temperature;humidity
50636;BME280;36598;46.054;11.130;2023-02-18T00:00:18;100488.38;;;7.15;66.00
50636;BME280;36598;46.054;11.130;2023-02-18T00:02:44;100488.38;;;7.15;66.82
50636;BME280;36598;46.054;11.130;2023-02-18T00:05:09;100494.88;;;7.26;66.01
50636;BME280;36598;46.054;11.130;2023-02-18T00:07:35;100490.03;;;7.39;65.38
50636;BME280;36598;46.054;11.130;2023-02-18T00:10:01;100487.34;;;7.23;65.97
50636;BME280;36598;46.054;11.130;2023-02-18T00:12:26;100488.28;;;7.12;66.19
50636;BME280;36598;46.054;11.130;2023-02-18T00:14:51;100484.09;;;7.18;65.91
50636;BME280;36598;46.054;11.130;2023-02-18T00:17:17;100481.13;;;7.07;65.90
50636;BME280;36598;46.054;11.130;2023-02-18T00:19:42;100481.16;;;7.11;66.08
50636;BME280;36598;46.054;11.130;2023-02-18T00:22:07;100476.88;;;6.94;66.24
50636;BME280;36598;46.054;11.130;2023-02-18T00:24:33;100478.59;;;6.67;66.98
50636;BME280;36598;46.054;11.130;2023-02-18T00:26:58;100471.09;;;6.64;67.28
50636;BME280;36598;46.054;11.130;2023-02-18T00:29:23;100473.88;;;6.83;66.61
50636;BME280;36598;46.054;11.130;2023-02-18T00:31:48;100465.00;;;6.90;66.44
50636;BME280;36598;46.054;11.130;2023-02-18T00:34:14;100461.69;;;7.00;65.54
50636;BME280;36598;46.054;11.130;2023-02-18T00:36:39;100460.38;;;6.94;65.90
50636;BME280;36598;46.054;11.130;2023-02-18T00:39:06;100455.41;;;6.84;65.96
50636;BME280;36598;46.054;11.130;2023-02-18T00:41:32;100452.19;;;6.97;65.95
50636;BME280;36598;46.054;11.130;2023-02-18T00:43:58;100449.63;;;6.89;66.47
50636;BME280;36598;46.054;11.130;2023-02-18T00:46:24;100445.78;;;6.74;66.99
50636;BME280;36598;46.054;11.130;2023-02-18T00:48:49;100444.50;;;6.87;66.30
50636;BME280;36598;46.054;11.130;2023-02-18T00:51:14;100448.25;;;6.79;66.27
50636;BME280;36598;46.054;11.130;2023-02-18T00:53:40;100439.06;;;6.91;65.86
50636;BME280;36598;46.054;11.130;2023-02-18T00:56:05;100438.91;;;6.84;66.25
50636;BME280;36598;46.054;11.130;2023-02-18T00:58:31;100429.56;;;6.53;66.96
50636;BME280;36598;46.054;11.130;2023-02-18T01:00:56;100434.19;;;6.84;66.00
50636;BME280;36598;46.054;11.130;2023-02-18T01:03:22;100434.94;;;6.81;65.85
50636;BME280;36598;46.054;11.130;2023-02-18T01:05:48;100440.16;;;6.86;65.64
50636;BME280;36598;46.054;11.130;2023-02-18T01:08:14;100438.50;;;6.66;66.16
50636;BME280;36598;46.054;11.130;2023-02-18T01:10:40;100444.19;;;6.73;65.99
50636;BME280;36598;46.054;11.130;2023-02-18T01:13:06;100435.75;;;6.66;66.57
50636;BME280;36598;46.054;11.130;2023-02-18T01:15:31;100436.44;;;6.78;65.54
50636;BME280;36598;46.054;11.130;2023-02-18T01:17:56;100441.41;;;6.22;67.05
50636;BME280;36598;46.054;11.130;2023-02-18T01:20:22;100431.53;;;6.37;66.85
50636;BME280;36598;46.054;11.130;2023-02-18T01:22:47;100433.50;;;6.20;67.14
50636;BME280;36598;46.054;11.130;2023-02-18T01:25:13;100439.03;;;6.71;65.49
50636;BME280;36598;46.054;11.130;2023-02-18T01:27:39;100432.94;;;6.62;65.66
50636;BME280;36598;46.054;11.130;2023-02-18T01:30:05;100426.41;;;6.51;65.62
50636;BME280;36598;46.054;11.130;2023-02-18T01:32:31;100441.75;;;6.36;66.01
50636;BME280;36598;46.054;11.130;2023-02-18T01:34:56;100431.38;;;6.30;66.12
50636;BME280;36598;46.054;11.130;2023-02-18T01:37:24;100435.59;;;6.59;65.44
50636;BME280;36598;46.054;11.130;2023-02-18T01:39:49;100431.81;;;6.47;65.48
50636;BME280;36598;46.054;11.130;2023-02-18T01:42:21;100425.16;;;6.33;65.50
50636;BME280;36598;46.054;11.130;2023-02-18T01:44:48;100431.81;;;6.47;65.46
50636;BME280;36598;46.054;11.130;2023-02-18T01:47:14;100431.16;;;6.54;65.28
50636;BME280;36598;46.054;11.130;2023-02-18T01:49:39;100433.47;;;5.89;67.26
50636;BME280;36598;46.054;11.130;2023-02-18T01:52:09;100425.75;;;5.78;68.48
50636;BME280;36598;46.054;11.130;2023-02-18T01:54:38;100432.16;;;5.98;67.54
50636;BME280;36598;46.054;11.130;2023-02-18T01:57:06;100430.84;;;6.24;66.68
50636;BME280;36598;46.054;11.130;2023-02-18T02:02:02;100424.22;;;6.09;66.96
50636;BME280;36598;46.054;11.130;2023-02-18T02:04:28;100433.50;;;6.20;66.22
50636;BME280;36598;46.054;11.130;2023-02-18T02:06:53;100432.00;;;6.23;66.23
50636;BME280;36598;46.054;11.130;2023-02-18T02:09:19;100433.06;;;6.18;65.87
50636;BME280;36598;46.054;11.130;2023-02-18T02:14:34;100427.09;;;5.57;68.27
50636;BME280;36598;46.054;11.130;2023-02-18T02:27:13;100423.41;;;6.09;66.28
50636;BME280;36598;46.054;11.130;2023-02-18T02:40:27;100412.09;;;5.82;66.63
50636;BME280;36598;46.054;11.130;2023-02-18T02:48:28;100409.16;;;5.59;67.32
50636;BME280;36598;46.054;11.130;2023-02-18T02:51:17;100410.25;;;5.70;67.23
50636;BME280;36598;46.054;11.130;2023-02-18T02:53:41;100405.56;;;5.87;66.48
50636;BME280;36598;46.054;11.130;2023-02-18T02:56:21;100399.47;;;6.09;66.00
50636;BME280;36598;46.054;11.130;2023-02-18T02:58:51;100400.22;;;5.78;66.28
50636;BME280;36598;46.054;11.130;2023-02-18T03:01:21;100393.84;;;5.74;66.07
50636;BME280;36598;46.054;11.130;2023-02-18T03:03:57;100398.84;;;5.56;66.93
50636;BME280;36598;46.054;11.130;2023-02-18T03:08:55;100388.50;;;5.49;67.44
50636;BME280;36598;46.054;11.130;2023-02-18T03:11:24;100398.09;;;5.27;68.70
50636;BME280;36598;46.054;11.130;2023-02-18T03:18:58;100403.19;;;5.41;67.60
50636;BME280;36598;46.054;11.130;2023-02-18T03:21:32;100397.97;;;5.52;66.91
50636;BME280;36598;46.054;11.130;2023-02-18T03:26:28;100408.34;;;5.31;67.84
50636;BME280;36598;46.054;11.130;2023-02-18T03:28:54;100409.47;;;5.42;67.24
50636;BME280;36598;46.054;11.130;2023-02-18T03:31:22;100404.06;;;5.45;66.97
50636;BME280;36598;46.054;11.130;2023-02-18T03:34:00;100393.41;;;5.72;65.63
50636;BME280;36598;46.054;11.130;2023-02-18T03:36:26;100390.63;;;5.56;66.34
50636;BME280;36598;46.054;11.130;2023-02-18T03:38:53;100394.97;;;5.57;66.30
50636;BME280;36598;46.054;11.130;2023-02-18T03:41:20;100382.47;;;5.60;66.01
50636;BME280;36598;46.054;11.130;2023-02-18T03:43:49;100396.38;;;5.51;65.86
50636;BME280;36598;46.054;11.130;2023-02-18T03:46:15;100379.63;;;5.56;66.06
50636;BME280;36598;46.054;11.130;2023-02-18T03:48:40;100385.66;;;5.46;66.34
50636;BME280;36598;46.054;11.130;2023-02-18T03:51:05;100381.78;;;5.63;65.73
50636;BME280;36598;46.054;11.130;2023-02-18T03:53:30;100376.19;;;5.59;65.99
50636;BME280;36598;46.054;11.130;2023-02-18T03:55:56;100375.13;;;4.92;67.83
50636;BME280;36598;46.054;11.130;2023-02-18T03:58:21;100381.13;;;5.38;66.10
50636;BME280;36598;46.054;11.130;2023-02-18T04:00:46;100377.13;;;5.35;66.13
50636;BME280;36598;46.054;11.130;2023-02-18T04:03:11;100373.75;;;4.98;67.19
50636;BME280;36598;46.054;11.130;2023-02-18T04:05:37;100387.66;;;4.65;68.70
50636;BME280;36598;46.054;11.130;2023-02-18T04:08:02;100393.38;;;4.60;69.29
50636;BME280;36598;46.054;11.130;2023-02-18T04:10:27;100390.31;;;5.01;67.34
50636;BME280;36598;46.054;11.130;2023-02-18T04:12:53;100383.97;;;5.13;67.05
50636;BME280;36598;46.054;11.130;2023-02-18T04:15:18;100384.06;;;5.17;66.89
50636;BME280;36598;46.054;11.130;2023-02-18T04:17:43;100382.16;;;5.05;67.13
50636;BME280;36598;46.054;11.130;2023-02-18T04:20:09;100383.22;;;5.00;67.33
50636;BME280;36598;46.054;11.130;2023-02-18T04:22:34;100386.59;;;4.82;67.73
50636;BME280;36598;46.054;11.130;2023-02-18T04:24:59;100375.47;;;4.90;67.31
50636;BME280;36598;46.054;11.130;2023-02-18T04:27:25;100379.63;;;4.84;67.76
50636;BME280;36598;46.054;11.130;2023-02-18T04:29:50;100374.81;;;5.09;66.70
50636;BME280;36598;46.054;11.130;2023-02-18T04:32:15;100382.00;;;5.14;66.83
50636;BME280;36598;46.054;11.130;2023-02-18T04:34:41;100382.13;;;5.17;66.04
50636;BME280;36598;46.054;11.130;2023-02-18T04:37:06;100381.06;;;5.22;65.97
50636;BME280;36598;46.054;11.130;2023-02-18T04:39:31;100373.78;;;5.14;65.90
50636;BME280;36598;46.054;11.130;2023-02-18T04:41:56;100379.63;;;5.12;65.87
50636;BME280;36598;46.054;11.130;2023-02-18T04:44:22;100380.69;;;5.36;65.82
50636;BME280;36598;46.054;11.130;2023-02-18T04:46:47;100380.16;;;4.90;66.75
50636;BME280;36598;46.054;11.130;2023-02-18T04:49:12;100383.88;;;4.57;68.17
50636;BME280;36598;46.054;11.130;2023-02-18T04:51:37;100381.03;;;5.06;65.99
50636;BME280;36598;46.054;11.130;2023-02-18T04:54:03;100386.41;;;5.31;65.73
50636;BME280;36598;46.054;11.130;2023-02-18T04:56:28;100388.72;;;5.28;65.45
50636;BME280;36598;46.054;11.130;2023-02-18T04:58:54;100388.59;;;4.44;67.96
50636;BME280;36598;46.054;11.130;2023-02-18T05:01:19;100391.00;;;4.46;68.42
50636;BME280;36598;46.054;11.130;2023-02-18T05:03:45;100386.19;;;4.95;66.99
50636;BME280;36598;46.054;11.130;2023-02-18T05:06:10;100375.44;;;5.02;66.56
50636;BME280;36598;46.054;11.130;2023-02-18T05:08:35;100377.72;;;5.00;66.45
50636;BME280;36598;46.054;11.130;2023-02-18T05:11:04;100377.88;;;4.92;66.88
50636;BME280;36598;46.054;11.130;2023-02-18T05:13:29;100373.56;;;5.19;65.43
50636;BME280;36598;46.054;11.130;2023-02-18T05:15:54;100380.16;;;4.90;66.44
50636;BME280;36598;46.054;11.130;2023-02-18T05:18:19;100377.56;;;5.09;65.97
50636;BME280;36598;46.054;11.130;2023-02-18T05:20:45;100377.84;;;5.32;64.86
50636;BME280;36598;46.054;11.130;2023-02-18T05:23:10;100375.94;;;5.20;65.16
50636;BME280;36598;46.054;11.130;2023-02-18T05:25:35;100372.91;;;4.69;66.84
50636;BME280;36598;46.054;11.130;2023-02-18T05:28:01;100373.53;;;4.50;67.66
50636;BME280;36598;46.054;11.130;2023-02-18T05:30:26;100375.34;;;4.46;68.07
50636;BME280;36598;46.054;11.130;2023-02-18T05:32:52;100378.16;;;4.62;67.38
50636;BME280;36598;46.054;11.130;2023-02-18T05:35:17;100366.06;;;4.75;67.08
50636;BME280;36598;46.054;11.130;2023-02-18T05:37:43;100381.81;;;4.66;67.22
50636;BME280;36598;46.054;11.130;2023-02-18T05:40:09;100368.66;;;4.84;66.76
50636;BME280;36598;46.054;11.130;2023-02-18T05:42:35;100374.19;;;4.60;67.63
50636;BME280;36598;46.054;11.130;2023-02-18T05:45:00;100376.13;;;4.71;66.87
50636;BME280;36598;46.054;11.130;2023-02-18T05:47:26;100372.34;;;4.64;67.18
50636;BME280;36598;46.054;11.130;2023-02-18T05:49:51;100375.25;;;4.43;68.46
50636;BME280;36598;46.054;11.130;2023-02-18T05:52:17;100376.59;;;4.37;68.18
50636;BME280;36598;46.054;11.130;2023-02-18T05:54:42;100384.50;;;4.50;68.28
50636;BME280;36598;46.054;11.130;2023-02-18T05:57:09;100378.59;;;4.76;67.21
50636;BME280;36598;46.054;11.130;2023-02-18T05:59:37;100379.53;;;5.09;66.04
50636;BME280;36598;46.054;11.130;2023-02-18T06:02:02;100388.94;;;4.55;67.25
50636;BME280;36598;46.054;11.130;2023-02-18T06:04:28;100380.94;;;4.50;67.79
50636;BME280;36598;46.054;11.130;2023-02-18T06:06:53;100383.97;;;4.73;66.82
50636;BME280;36598;46.054;11.130;2023-02-18T06:09:22;100392.75;;;4.78;66.44
50636;BME280;36598;46.054;11.130;2023-02-18T06:11:47;100383.19;;;4.72;66.72
50636;BME280;36598;46.054;11.130;2023-02-18T06:14:13;100388.00;;;4.75;66.77
50636;BME280;36598;46.054;11.130;2023-02-18T06:16:38;100385.91;;;4.85;66.54
50636;BME280;36598;46.054;11.130;2023-02-18T06:19:04;100383.59;;;4.46;67.33
50636;BME280;36598;46.054;11.130;2023-02-18T06:21:29;100396.88;;;4.85;66.26
50636;BME280;36598;46.054;11.130;2023-02-18T06:23:55;100398.06;;;4.47;67.49
50636;BME280;36598;46.054;11.130;2023-02-18T06:26:20;100405.22;;;4.76;66.83
50636;BME280;36598;46.054;11.130;2023-02-18T06:28:46;100400.53;;;4.89;66.51
50636;BME280;36598;46.054;11.130;2023-02-18T06:31:11;100401.25;;;4.49;67.38
50636;BME280;36598;46.054;11.130;2023-02-18T06:33:37;100398.00;;;4.84;67.04
50636;BME280;36598;46.054;11.130;2023-02-18T06:36:03;100388.78;;;5.04;65.92
50636;BME280;36598;46.054;11.130;2023-02-18T06:38:31;100393.09;;;4.89;66.22
50636;BME280;36598;46.054;11.130;2023-02-18T06:40:57;100394.09;;;5.25;64.62
50636;BME280;36598;46.054;11.130;2023-02-18T06:43:22;100398.16;;;5.59;63.73
50636;BME280;36598;46.054;11.130;2023-02-18T06:45:48;100402.75;;;5.55;63.62
50636;BME280;36598;46.054;11.130;2023-02-18T06:48:13;100404.19;;;5.49;64.26
50636;BME280;36598;46.054;11.130;2023-02-18T06:50:39;100407.59;;;4.90;65.94
50636;BME280;36598;46.054;11.130;2023-02-18T06:53:05;100408.53;;;4.82;66.24
50636;BME280;36598;46.054;11.130;2023-02-18T06:55:31;100415.47;;;5.32;65.00
50636;BME280;36598;46.054;11.130;2023-02-18T06:57:56;100425.38;;;5.36;64.63
50636;BME280;36598;46.054;11.130;2023-02-18T07:00:22;100422.53;;;5.33;64.73
50636;BME280;36598;46.054;11.130;2023-02-18T07:02:47;100420.97;;;5.75;63.57
50636;BME280;36598;46.054;11.130;2023-02-18T07:05:13;100420.97;;;5.75;63.71
50636;BME280;36598;46.054;11.130;2023-02-18T07:07:38;100426.00;;;5.73;64.03
50636;BME280;36598;46.054;11.130;2023-02-18T07:10:04;100427.03;;;6.28;62.42
50636;BME280;36598;46.054;11.130;2023-02-18T07:12:30;100433.44;;;6.17;62.18
50636;BME280;36598;46.054;11.130;2023-02-18T07:14:55;100425.56;;;6.50;61.16
50636;BME280;36598;46.054;11.130;2023-02-18T07:17:21;100428.09;;;6.40;61.99
50636;BME280;36598;46.054;11.130;2023-02-18T07:19:47;100426.50;;;6.07;63.03
50636;BME280;36598;46.054;11.130;2023-02-18T07:22:12;100431.25;;;6.58;61.56
50636;BME280;36598;46.054;11.130;2023-02-18T07:24:37;100435.16;;;6.57;61.01
50636;BME280;36598;46.054;11.130;2023-02-18T07:27:03;100435.91;;;6.22;62.10
50636;BME280;36598;46.054;11.130;2023-02-18T07:29:28;100432.44;;;6.41;62.06
50636;BME280;36598;46.054;11.130;2023-02-18T07:31:54;100439.31;;;6.66;60.63
50636;BME280;36598;46.054;11.130;2023-02-18T07:34:19;100438.19;;;6.87;59.81
50636;BME280;36598;46.054;11.130;2023-02-18T07:36:45;100443.47;;;7.11;59.33
50636;BME280;36598;46.054;11.130;2023-02-18T07:39:10;100436.47;;;7.56;58.45
50636;BME280;36598;46.054;11.130;2023-02-18T07:41:35;100435.88;;;7.66;57.65
50636;BME280;36598;46.054;11.130;2023-02-18T07:44:01;100433.41;;;7.81;57.54
50636;BME280;36598;46.054;11.130;2023-02-18T07:46:26;100430.66;;;7.61;57.58
50636;BME280;36598;46.054;11.130;2023-02-18T07:48:52;100434.56;;;7.80;57.66
50636;BME280;36598;46.054;11.130;2023-02-18T07:51:17;100427.91;;;7.81;58.10
50636;BME280;36598;46.054;11.130;2023-02-18T07:53:42;100431.13;;;7.63;58.19
50636;BME280;36598;46.054;11.130;2023-02-18T07:56:08;100422.44;;;7.42;59.18
50636;BME280;36598;46.054;11.130;2023-02-18T07:58:35;100421.13;;;7.55;58.85
50636;BME280;36598;46.054;11.130;2023-02-18T08:01:04;100418.03;;;7.80;58.34
50636;BME280;36598;46.054;11.130;2023-02-18T08:03:30;100405.78;;;8.46;56.22
50636;BME280;36598;46.054;11.130;2023-02-18T08:05:57;100397.13;;;9.04;54.97
50636;BME280;36598;46.054;11.130;2023-02-18T08:08:24;100389.63;;;11.80;47.90
50636;BME280;36598;46.054;11.130;2023-02-18T08:10:50;100377.59;;;15.13;40.35
50636;BME280;36598;46.054;11.130;2023-02-18T08:13:16;100384.00;;;17.48;34.72
50636;BME280;36598;46.054;11.130;2023-02-18T08:15:41;100384.88;;;18.46;32.25
50636;BME280;36598;46.054;11.130;2023-02-18T08:18:07;100383.28;;;19.87;30.55
50636;BME280;36598;46.054;11.130;2023-02-18T08:20:36;100371.66;;;21.68;27.49
50636;BME280;36598;46.054;11.130;2023-02-18T08:23:02;100384.28;;;22.53;26.05
50636;BME280;36598;46.054;11.130;2023-02-18T08:25:27;100370.78;;;24.63;23.80
50636;BME280;36598;46.054;11.130;2023-02-18T08:27:53;100369.03;;;25.19;22.72
50636;BME280;36598;46.054;11.130;2023-02-18T08:30:18;100372.25;;;25.42;22.03
50636;BME280;36598;46.054;11.130;2023-02-18T08:32:44;100371.81;;;25.93;21.52
50636;BME280;36598;46.054;11.130;2023-02-18T08:35:09;100360.72;;;26.10;21.29
50636;BME280;36598;46.054;11.130;2023-02-18T08:37:35;100352.97;;;25.76;21.48
50636;BME280;36598;46.054;11.130;2023-02-18T08:40:01;100356.41;;;25.80;21.27
50636;BME280;36598;46.054;11.130;2023-02-18T08:42:27;100356.31;;;25.59;21.39
50636;BME280;36598;46.054;11.130;2023-02-18T08:44:52;100354.47;;;25.27;21.75
50636;BME280;36598;46.054;11.130;2023-02-18T08:47:17;100349.81;;;23.13;23.55
50636;BME280;36598;46.054;11.130;2023-02-18T08:49:43;100350.44;;;22.53;24.58
50636;BME280;36598;46.054;11.130;2023-02-18T08:52:08;100359.78;;;21.33;26.22
50636;BME280;36598;46.054;11.130;2023-02-18T08:54:34;100352.31;;;21.48;25.87
50636;BME280;36598;46.054;11.130;2023-02-18T08:56:59;100349.22;;;21.02;26.70
50636;BME280;36598;46.054;11.130;2023-02-18T08:59:24;100359.31;;;21.74;26.00
50636;BME280;36598;46.054;11.130;2023-02-18T09:01:50;100356.38;;;22.55;24.95
50636;BME280;36598;46.054;11.130;2023-02-18T09:04:15;100343.28;;;24.79;22.52
50636;BME280;36598;46.054;11.130;2023-02-18T09:06:41;100339.38;;;26.15;20.87
50636;BME280;36598;46.054;11.130;2023-02-18T09:09:06;100346.25;;;27.79;19.08
50636;BME280;36598;46.054;11.130;2023-02-18T09:11:32;100343.69;;;26.97;19.32
50636;BME280;36598;46.054;11.130;2023-02-18T09:13:57;100347.81;;;26.70;19.22
50636;BME280;36598;46.054;11.130;2023-02-18T09:16:23;100336.03;;;27.30;19.15
50636;BME280;36598;46.054;11.130;2023-02-18T09:18:48;100328.72;;;25.75;20.58
50636;BME280;36598;46.054;11.130;2023-02-18T09:21:14;100329.22;;;29.27;17.30
50636;BME280;36598;46.054;11.130;2023-02-18T09:23:41;100327.31;;;28.67;17.66
50636;BME280;36598;46.054;11.130;2023-02-18T09:26:08;100330.72;;;27.75;18.71
50636;BME280;36598;46.054;11.130;2023-02-18T09:28:34;100335.25;;;27.03;19.32
50636;BME280;36598;46.054;11.130;2023-02-18T09:31:03;100327.44;;;29.57;16.82
50636;BME280;36598;46.054;11.130;2023-02-18T09:33:29;100324.28;;;29.78;16.78
50636;BME280;36598;46.054;11.130;2023-02-18T09:35:54;100320.91;;;30.60;16.30
50636;BME280;36598;46.054;11.130;2023-02-18T09:38:20;100323.25;;;29.81;17.08
50636;BME280;36598;46.054;11.130;2023-02-18T09:40:49;100323.03;;;29.34;17.01
50636;BME280;36598;46.054;11.130;2023-02-18T09:43:29;100324.25;;;28.93;16.96
50636;BME280;36598;46.054;11.130;2023-02-18T09:45:56;100325.31;;;27.13;18.49
50636;BME280;36598;46.054;11.130;2023-02-18T09:48:26;100320.72;;;27.53;18.54
50636;BME280;36598;46.054;11.130;2023-02-18T09:50:53;100326.53;;;26.40;19.40
50636;BME280;36598;46.054;11.130;2023-02-18T09:53:20;100311.34;;;29.32;17.05
50636;BME280;36598;46.054;11.130;2023-02-18T09:55:49;100317.41;;;28.52;17.92
50636;BME280;36598;46.054;11.130;2023-02-18T09:58:16;100303.41;;;28.37;18.14
50636;BME280;36598;46.054;11.130;2023-02-18T10:00:44;100304.47;;;24.40;21.76
50636;BME280;36598;46.054;11.130;2023-02-18T10:03:12;100299.13;;;25.61;20.59
50636;BME280;36598;46.054;11.130;2023-02-18T10:05:40;100304.44;;;24.64;21.47
50636;BME280;36598;46.054;11.130;2023-02-18T10:08:08;100298.69;;;23.87;22.89
50636;BME280;36598;46.054;11.130;2023-02-18T10:10:43;100295.75;;;24.05;22.59
50636;BME280;36598;46.054;11.130;2023-02-18T10:13:12;100300.25;;;20.21;26.62
50636;BME280;36598;46.054;11.130;2023-02-18T10:15:38;100295.38;;;20.91;25.55
50636;BME280;36598;46.054;11.130;2023-02-18T10:18:05;100281.84;;;23.68;22.89
50636;BME280;36598;46.054;11.130;2023-02-18T10:20:35;100279.06;;;24.70;21.32
50636;BME280;36598;46.054;11.130;2023-02-18T10:23:01;100277.53;;;23.82;22.27
50636;BME280;36598;46.054;11.130;2023-02-18T10:25:29;100268.59;;;23.41;22.92
50636;BME280;36598;46.054;11.130;2023-02-18T10:27:55;100273.19;;;21.46;25.25
50636;BME280;36598;46.054;11.130;2023-02-18T10:30:23;100271.06;;;21.06;25.94
50636;BME280;36598;46.054;11.130;2023-02-18T10:32:54;100271.72;;;20.57;26.32
50636;BME280;36598;46.054;11.130;2023-02-18T10:35:26;100266.75;;;21.45;24.96
50636;BME280;36598;46.054;11.130;2023-02-18T10:40:46;100249.31;;;23.73;22.53
50636;BME280;36598;46.054;11.130;2023-02-18T10:46:14;100241.19;;;24.14;22.14
50636;BME280;36598;46.054;11.130;2023-02-18T10:51:28;100242.63;;;19.56;26.92
50636;BME280;36598;46.054;11.130;2023-02-18T10:53:55;100241.75;;;20.63;26.54
50636;BME280;36598;46.054;11.130;2023-02-18T10:59:20;100247.06;;;17.90;30.46
50636;BME280;36598;46.054;11.130;2023-02-18T11:01:52;100235.94;;;18.32;29.59
50636;BME280;36598;46.054;11.130;2023-02-18T11:04:19;100227.22;;;17.84;30.95
50636;BME280;36598;46.054;11.130;2023-02-18T11:06:48;100230.19;;;18.81;29.46
50636;BME280;36598;46.054;11.130;2023-02-18T11:09:34;100226.41;;;16.22;33.08
50636;BME280;36598;46.054;11.130;2023-02-18T11:12:10;100214.88;;;20.40;27.41
50636;BME280;36598;46.054;11.130;2023-02-18T11:14:45;100208.78;;;19.12;28.77
50636;BME280;36598;46.054;11.130;2023-02-18T11:17:18;100203.44;;;20.35;27.32
50636;BME280;36598;46.054;11.130;2023-02-18T11:19:52;100194.72;;;20.64;27.04
50636;BME280;36598;46.054;11.130;2023-02-18T11:22:19;100193.25;;;20.81;27.04
50636;BME280;36598;46.054;11.130;2023-02-18T11:24:45;100196.31;;;19.86;28.15
50636;BME280;36598;46.054;11.130;2023-02-18T11:30:16;100184.69;;;15.72;35.32
50636;BME280;36598;46.054;11.130;2023-02-18T11:32:43;100178.38;;;16.87;33.99
50636;BME280;36598;46.054;11.130;2023-02-18T11:35:16;100173.81;;;15.54;36.11
50636;BME280;36598;46.054;11.130;2023-02-18T11:37:42;100175.50;;;15.48;37.20
50636;BME280;36598;46.054;11.130;2023-02-18T11:40:18;100170.69;;;15.95;35.98
50636;BME280;36598;46.054;11.130;2023-02-18T11:42:44;100168.09;;;16.64;34.86
50636;BME280;36598;46.054;11.130;2023-02-18T11:45:24;100165.13;;;15.95;36.06
50636;BME280;36598;46.054;11.130;2023-02-18T11:47:59;100160.38;;;15.92;36.51
50636;BME280;36598;46.054;11.130;2023-02-18T11:50:25;100146.53;;;17.01;34.51
50636;BME280;36598;46.054;11.130;2023-02-18T11:52:54;100147.03;;;17.61;34.04
50636;BME280;36598;46.054;11.130;2023-02-18T11:55:28;100147.06;;;18.19;32.31
50636;BME280;36598;46.054;11.130;2023-02-18T11:57:58;100136.72;;;17.74;33.11
50636;BME280;36598;46.054;11.130;2023-02-18T12:00:44;100127.56;;;17.41;33.82
50636;BME280;36598;46.054;11.130;2023-02-18T12:03:14;100128.41;;;17.38;34.38
50636;BME280;36598;46.054;11.130;2023-02-18T12:05:42;100126.25;;;16.97;34.94
50636;BME280;36598;46.054;11.130;2023-02-18T12:08:20;100119.25;;;16.89;35.32
50636;BME280;36598;46.054;11.130;2023-02-18T12:10:49;100118.53;;;16.12;36.46
50636;BME280;36598;46.054;11.130;2023-02-18T12:13:21;100109.03;;;16.46;36.28
50636;BME280;36598;46.054;11.130;2023-02-18T12:36:15;100066.44;;;15.86;38.54
50636;BME280;36598;46.054;11.130;2023-02-18T12:38:59;100059.31;;;15.61;38.97
50636;BME280;36598;46.054;11.130;2023-02-18T12:41:45;100055.03;;;16.69;37.10
50636;BME280;36598;46.054;11.130;2023-02-18T12:44:34;100052.31;;;15.93;38.32
50636;BME280;36598;46.054;11.130;2023-02-18T12:47:27;100052.94;;;16.20;37.91
50636;BME280;36598;46.054;11.130;2023-02-18T12:55:16;100045.13;;;14.35;41.87
50636;BME280;36598;46.054;11.130;2023-02-18T13:10:51;100023.13;;;15.58;38.89
50636;BME280;36598;46.054;11.130;2023-02-18T13:18:43;100001.41;;;16.41;36.61
50636;BME280;36598;46.054;11.130;2023-02-18T13:21:12;99994.53;;;16.62;36.10
50636;BME280;36598;46.054;11.130;2023-02-18T13:23:39;99992.16;;;15.92;37.35
50636;BME280;36598;46.054;11.130;2023-02-18T13:26:08;99991.94;;;16.02;37.28
50636;BME280;36598;46.054;11.130;2023-02-18T13:39:17;99980.56;;;15.34;40.55
50636;BME280;36598;46.054;11.130;2023-02-18T13:41:45;99982.47;;;14.73;42.51
50636;BME280;36598;46.054;11.130;2023-02-18T13:46:49;99982.94;;;14.68;43.15
50636;BME280;36598;46.054;11.130;2023-02-18T13:49:17;99969.19;;;14.58;43.40
50636;BME280;36598;46.054;11.130;2023-02-18T13:51:46;99964.84;;;14.29;45.21
50636;BME280;36598;46.054;11.130;2023-02-18T13:56:44;99966.59;;;13.93;46.03
50636;BME280;36598;46.054;11.130;2023-02-18T13:59:18;99963.44;;;14.68;44.39
50636;BME280;36598;46.054;11.130;2023-02-18T14:01:45;99957.53;;;15.10;43.26
50636;BME280;36598;46.054;11.130;2023-02-18T14:09:40;99943.31;;;14.81;44.70
50636;BME280;36598;46.054;11.130;2023-02-18T14:14:40;99946.56;;;14.28;47.60
50636;BME280;36598;46.054;11.130;2023-02-18T14:19:53;99945.59;;;15.09;46.20
50636;BME280;36598;46.054;11.130;2023-02-18T14:22:25;99938.16;;;15.22;45.31
50636;BME280;36598;46.054;11.130;2023-02-18T14:24:55;99943.47;;;14.73;45.63
50636;BME280;36598;46.054;11.130;2023-02-18T14:27:20;99944.34;;;14.16;48.33
50636;BME280;36598;46.054;11.130;2023-02-18T14:29:48;99949.72;;;14.03;48.09
50636;BME280;36598;46.054;11.130;2023-02-18T14:32:15;99944.66;;;14.72;46.92
50636;BME280;36598;46.054;11.130;2023-02-18T14:34:49;99945.22;;;14.13;48.04
50636;BME280;36598;46.054;11.130;2023-02-18T14:47:53;99939.66;;;14.13;48.67
50636;BME280;36598;46.054;11.130;2023-02-18T14:50:20;99951.25;;;13.81;50.08
50636;BME280;36598;46.054;11.130;2023-02-18T14:52:47;99940.28;;;13.70;49.91
50636;BME280;36598;46.054;11.130;2023-02-18T14:55:16;99938.69;;;13.69;50.12
50636;BME280;36598;46.054;11.130;2023-02-18T14:57:44;99935.84;;;14.00;49.16
50636;BME280;36598;46.054;11.130;2023-02-18T15:00:17;99938.06;;;14.39;48.46
50636;BME280;36598;46.054;11.130;2023-02-18T15:02:43;99937.22;;;14.15;47.34
50636;BME280;36598;46.054;11.130;2023-02-18T15:05:13;99936.00;;;14.16;47.99